createdAt,value
2023-01-19T00:01:59.037Z,89.21
2023-01-19T00:05:04.004Z,89.17
2023-01-19T00:08:14.880Z,88.82
2023-01-19T00:11:18.481Z,88.47
2023-01-19T00:14:21.042Z,88.64
2023-01-19T00:17:23.501Z,88.00
2023-01-19T00:20:25.961Z,88.28
2023-01-19T00:23:28.544Z,88.59
2023-01-19T00:26:31.097Z,88.61
2023-01-19T00:29:34.353Z,89.04
2023-01-19T00:32:36.777Z,88.59
2023-01-19T00:35:39.492Z,88.60
2023-01-19T00:38:42.001Z,87.93
2023-01-19T00:42:03.177Z,88.23
2023-01-19T00:45:09.277Z,88.07
2023-01-19T00:48:11.912Z,88.03
2023-01-19T00:51:14.487Z,88.61
2023-01-19T00:54:17.020Z,88.08
2023-01-19T00:57:19.472Z,88.25
2023-01-19T01:00:22.591Z,87.66
2023-01-19T01:03:28.176Z,87.71
2023-01-19T01:06:31.028Z,88.39
2023-01-19T01:09:33.537Z,88.01
2023-01-19T01:12:37.327Z,88.41
2023-01-19T01:15:40.138Z,88.11
2023-01-19T01:18:43.390Z,88.51
2023-01-19T01:21:45.838Z,88.19
2023-01-19T01:24:48.296Z,87.49
2023-01-19T01:27:51.479Z,88.05
2023-01-19T01:30:55.693Z,87.93
2023-01-19T01:33:58.167Z,88.43
2023-01-19T01:37:00.612Z,88.29
2023-01-19T01:40:04.867Z,88.16
2023-01-19T01:43:13.589Z,88.36
2023-01-19T01:46:17.583Z,87.58
2023-01-19T01:49:20.175Z,88.01
2023-01-19T01:52:26.361Z,88.08
2023-01-19T01:55:30.598Z,88.20
2023-01-19T01:58:34.333Z,88.06
2023-01-19T02:01:55.760Z,87.58
2023-01-19T02:05:04.259Z,87.46
2023-01-19T02:08:33.415Z,87.34
2023-01-19T02:11:55.150Z,87.19
2023-01-19T02:14:57.692Z,87.19
2023-01-19T02:18:00.273Z,87.37
2023-01-19T02:21:11.615Z,86.94
2023-01-19T02:24:14.690Z,87.09
2023-01-19T02:27:17.379Z,87.19
2023-01-19T02:30:20.090Z,86.45
2023-01-19T02:33:22.755Z,86.72
2023-01-19T02:36:30.290Z,86.73
2023-01-19T02:39:50.850Z,86.64
2023-01-19T02:42:58.773Z,86.65
2023-01-19T02:46:01.384Z,86.37
2023-01-19T02:49:03.989Z,86.42
2023-01-19T02:52:15.557Z,86.29
2023-01-19T02:55:25.593Z,86.67
2023-01-19T02:58:39.563Z,86.83
2023-01-19T03:02:09.992Z,86.65
2023-01-19T03:05:30.760Z,86.80
2023-01-19T03:08:53.085Z,86.53
2023-01-19T03:12:09.647Z,86.26
2023-01-19T03:15:23.045Z,87.08
2023-01-19T03:18:29.793Z,86.69
2023-01-19T03:21:35.766Z,86.69
2023-01-19T03:24:42.184Z,86.63
2023-01-19T03:27:47.199Z,86.66
2023-01-19T03:31:01.746Z,86.76
2023-01-19T03:34:08.045Z,86.56
2023-01-19T03:37:14.262Z,86.37
2023-01-19T03:40:20.409Z,86.16
2023-01-19T03:43:25.542Z,86.04
2023-01-19T03:46:28.802Z,86.33
2023-01-19T03:49:31.887Z,86.48
2023-01-19T03:52:34.631Z,86.73
2023-01-19T03:55:39.065Z,86.42
2023-01-19T03:58:42.408Z,86.42
2023-01-19T04:01:45.299Z,86.57
2023-01-19T04:04:47.868Z,86.55
2023-01-19T04:07:52.157Z,86.73
2023-01-19T04:10:54.736Z,86.59
2023-01-19T04:13:57.294Z,86.27
2023-01-19T04:17:00.190Z,86.22
2023-01-19T04:20:03.158Z,86.43
2023-01-19T04:23:05.745Z,86.89
2023-01-19T04:26:09.183Z,85.89
2023-01-19T04:29:11.643Z,86.94
2023-01-19T04:32:14.815Z,87.11
2023-01-19T04:35:17.484Z,86.22
2023-01-19T04:38:20.342Z,86.82
2023-01-19T04:41:22.875Z,86.72
2023-01-19T04:44:25.268Z,86.23
2023-01-19T04:47:27.711Z,86.38
2023-01-19T04:50:30.835Z,86.83
2023-01-19T04:53:33.237Z,86.77
2023-01-19T04:56:36.042Z,86.65
2023-01-19T04:59:38.425Z,86.53
2023-01-19T05:02:44.239Z,86.19
2023-01-19T05:05:46.859Z,86.46
2023-01-19T05:08:49.251Z,86.28
2023-01-19T05:11:51.706Z,86.57
2023-01-19T05:14:54.170Z,85.69
2023-01-19T05:17:58.147Z,86.09
2023-01-19T05:21:02.349Z,85.75
2023-01-19T05:24:04.972Z,85.26
2023-01-19T05:27:07.559Z,86.20
2023-01-19T05:30:11.017Z,86.13
2023-01-19T05:33:13.539Z,86.04
2023-01-19T05:36:16.059Z,85.52
2023-01-19T05:39:18.926Z,85.14
2023-01-19T05:42:21.388Z,86.02
2023-01-19T05:45:23.809Z,85.34
2023-01-19T05:48:26.502Z,85.62
2023-01-19T05:51:35.356Z,85.83
2023-01-19T05:54:40.347Z,84.99
2023-01-19T05:57:43.367Z,85.25
2023-01-19T06:00:45.831Z,85.29
2023-01-19T06:03:48.934Z,84.50
2023-01-19T06:06:51.789Z,85.34
2023-01-19T06:09:54.251Z,85.53
2023-01-19T06:12:57.154Z,85.35
2023-01-19T06:16:01.463Z,85.68
2023-01-19T06:19:04.457Z,85.28
2023-01-19T06:22:06.962Z,85.62
2023-01-19T06:25:10.174Z,85.29
2023-01-19T06:28:12.664Z,85.07
2023-01-19T06:31:15.290Z,85.05
2023-01-19T06:34:19.072Z,84.54
2023-01-19T06:37:21.651Z,84.82
2023-01-19T06:40:24.296Z,84.74
2023-01-19T06:43:27.136Z,85.48
2023-01-19T06:46:29.994Z,85.18
2023-01-19T06:49:32.863Z,85.20
2023-01-19T06:52:42.224Z,85.10
2023-01-19T06:55:44.780Z,84.73
2023-01-19T06:58:48.599Z,84.93
2023-01-19T07:01:51.275Z,84.53
2023-01-19T07:04:55.184Z,85.06
2023-01-19T07:07:57.940Z,84.48
2023-01-19T07:11:26.542Z,83.95
2023-01-19T07:14:33.566Z,84.83
2023-01-19T07:17:36.092Z,83.74
2023-01-19T07:20:38.634Z,83.96
2023-01-19T07:23:41.289Z,84.59
2023-01-19T07:26:43.882Z,84.10
2023-01-19T07:29:46.314Z,84.12
2023-01-19T07:32:48.869Z,83.41
2023-01-19T07:35:52.611Z,83.28
2023-01-19T07:38:55.133Z,83.84
2023-01-19T07:41:58.253Z,83.82
2023-01-19T07:45:01.011Z,83.44
2023-01-19T07:48:03.672Z,83.32
2023-01-19T07:51:10.421Z,83.04
2023-01-19T07:54:14.999Z,82.89
2023-01-19T07:57:17.889Z,82.73
2023-01-19T08:00:24.613Z,82.98
2023-01-19T08:03:27.335Z,82.79
2023-01-19T08:06:35.294Z,83.35
2023-01-19T08:09:37.777Z,84.08
2023-01-19T08:12:41.954Z,84.68
2023-01-19T08:15:45.028Z,83.85
2023-01-19T08:18:47.860Z,83.50
2023-01-19T08:21:50.310Z,83.62
2023-01-19T08:24:53.102Z,83.60
2023-01-19T08:27:56.620Z,83.05
2023-01-19T08:31:08.027Z,83.18
2023-01-19T08:34:17.242Z,83.71
2023-01-19T08:37:19.721Z,82.43
2023-01-19T08:40:23.080Z,82.56
2023-01-19T08:43:26.890Z,82.34
2023-01-19T08:46:29.875Z,82.74
2023-01-19T08:49:32.418Z,82.48
2023-01-19T08:52:35.667Z,82.95
2023-01-19T08:55:39.470Z,82.94
2023-01-19T08:58:43.993Z,83.06
2023-01-19T09:01:46.697Z,83.50
2023-01-19T09:04:50.180Z,84.18
2023-01-19T09:07:53.655Z,83.81
2023-01-19T09:10:56.521Z,83.49
2023-01-19T09:13:59.091Z,83.51
2023-01-19T09:17:01.603Z,84.24
2023-01-19T09:20:05.986Z,84.64
2023-01-19T09:23:14.025Z,84.10
2023-01-19T09:26:17.423Z,84.39
2023-01-19T09:29:20.092Z,84.55
2023-01-19T09:32:23.087Z,84.96
2023-01-19T09:35:26.003Z,85.01
2023-01-19T09:38:31.554Z,84.29
2023-01-19T09:41:36.425Z,84.11
2023-01-19T09:44:43.467Z,83.52
2023-01-19T09:47:48.643Z,83.87
2023-01-19T09:50:54.287Z,83.58
2023-01-19T09:54:19.390Z,84.85
2023-01-19T09:57:23.996Z,85.13
2023-01-19T10:00:28.983Z,84.15
2023-01-19T10:03:35.552Z,84.09
2023-01-19T10:06:38.151Z,84.03
2023-01-19T10:10:20.292Z,85.41
2023-01-19T10:13:31.896Z,84.93
2023-01-19T10:17:07.036Z,85.06
2023-01-19T10:20:35.167Z,85.07
2023-01-19T10:23:54.828Z,85.82
2023-01-19T10:26:57.469Z,84.64
2023-01-19T10:30:01.771Z,84.75
2023-01-19T10:33:05.127Z,84.85
2023-01-19T10:36:18.065Z,85.16
2023-01-19T10:39:21.250Z,84.77
2023-01-19T10:42:27.543Z,84.48
2023-01-19T10:45:31.762Z,84.78
2023-01-19T10:48:42.154Z,84.95
2023-01-19T10:51:49.037Z,84.58
2023-01-19T10:54:52.003Z,85.43
2023-01-19T10:57:54.840Z,84.21
2023-01-19T11:01:13.830Z,83.59
2023-01-19T11:04:27.700Z,84.67
2023-01-19T11:07:33.104Z,85.22
2023-01-19T11:10:36.233Z,84.52
2023-01-19T11:13:40.544Z,84.69
2023-01-19T11:16:47.494Z,84.24
2023-01-19T11:19:56.277Z,83.87
2023-01-19T11:23:05.351Z,84.18
2023-01-19T11:26:15.675Z,84.97
2023-01-19T11:29:24.482Z,83.74
2023-01-19T11:32:27.746Z,83.96
2023-01-19T11:35:34.031Z,84.68
2023-01-19T11:38:43.655Z,83.34
2023-01-19T11:41:51.342Z,83.73
2023-01-19T11:45:05.879Z,84.38
2023-01-19T11:48:22.549Z,82.54
2023-01-19T11:51:49.531Z,82.11
2023-01-19T11:55:06.222Z,81.74
2023-01-19T11:58:15.917Z,82.62
2023-01-19T12:01:30.079Z,82.97
2023-01-19T12:04:40.447Z,83.62
2023-01-19T12:07:45.210Z,82.74
2023-01-19T12:10:50.626Z,81.93
2023-01-19T12:13:54.322Z,82.73
2023-01-19T12:17:01.046Z,82.03
2023-01-19T12:20:13.900Z,81.29
2023-01-19T12:23:38.727Z,80.40
2023-01-19T12:26:51.314Z,81.62
2023-01-19T12:29:55.107Z,82.65
2023-01-19T12:33:34.997Z,82.13
2023-01-19T12:36:38.927Z,81.46
2023-01-19T12:39:49.045Z,81.79
2023-01-19T12:43:06.003Z,80.39
2023-01-19T12:46:31.834Z,81.36
2023-01-19T12:49:40.234Z,81.08
2023-01-19T12:52:51.752Z,82.39
2023-01-19T12:56:01.086Z,82.29
2023-01-19T12:59:05.904Z,82.19
2023-01-19T13:02:20.810Z,82.83
2023-01-19T13:05:33.136Z,82.42
2023-01-19T13:09:43.897Z,82.48
2023-01-19T13:13:16.572Z,83.35
2023-01-19T13:16:19.625Z,83.25
2023-01-19T13:19:32.465Z,84.48
2023-01-19T13:22:49.958Z,83.22
2023-01-19T13:25:58.933Z,83.97
2023-01-19T13:29:34.548Z,84.09
2023-01-19T13:32:42.308Z,84.98
2023-01-19T13:35:56.290Z,84.07
2023-01-19T13:39:18.348Z,84.70
2023-01-19T13:42:29.423Z,85.77
2023-01-19T13:45:37.064Z,85.47
2023-01-19T13:48:40.209Z,87.13
2023-01-19T13:51:42.865Z,86.05
2023-01-19T13:54:53.325Z,86.43
2023-01-19T13:58:01.613Z,85.84
2023-01-19T14:01:04.159Z,85.99
2023-01-19T14:04:23.808Z,85.17
2023-01-19T14:07:26.690Z,85.86
2023-01-19T14:10:31.373Z,84.99
2023-01-19T14:13:37.439Z,85.81
2023-01-19T14:16:40.028Z,85.38
2023-01-19T14:19:54.224Z,86.08
2023-01-19T14:22:56.816Z,86.19
2023-01-19T14:25:59.297Z,85.18
2023-01-19T14:29:27.932Z,85.40
2023-01-19T14:32:30.666Z,86.29
2023-01-19T14:35:34.724Z,84.15
2023-01-19T14:38:37.255Z,83.23
2023-01-19T14:41:52.325Z,84.00
2023-01-19T14:44:56.899Z,84.28
2023-01-19T14:48:12.117Z,84.50
2023-01-19T14:51:20.296Z,84.32
2023-01-19T14:54:34.342Z,84.53
2023-01-19T14:57:37.901Z,84.86
2023-01-19T15:00:41.983Z,84.64
2023-01-19T15:03:45.782Z,85.22
2023-01-19T15:06:48.660Z,83.67
2023-01-19T15:09:51.786Z,84.34
2023-01-19T15:12:54.943Z,83.86
2023-01-19T15:15:58.416Z,83.52
2023-01-19T15:19:01.075Z,83.58
2023-01-19T15:22:11.303Z,83.93
2023-01-19T15:25:16.062Z,83.84
2023-01-19T15:28:20.048Z,82.90
2023-01-19T15:31:24.792Z,83.97
2023-01-19T15:34:27.342Z,83.16
2023-01-19T15:37:29.803Z,84.31
2023-01-19T15:40:32.412Z,83.62
2023-01-19T15:43:34.794Z,84.71
2023-01-19T15:46:37.410Z,83.87
2023-01-19T15:49:39.879Z,84.85
2023-01-19T15:52:43.899Z,84.16
2023-01-19T15:55:51.219Z,84.13
2023-01-19T15:58:54.795Z,83.62
2023-01-19T16:01:58.103Z,84.25
2023-01-19T16:05:00.671Z,84.12
2023-01-19T16:08:03.147Z,84.06
2023-01-19T16:11:10.975Z,84.50
2023-01-19T16:14:13.506Z,84.05
2023-01-19T16:17:16.258Z,84.17
2023-01-19T16:20:18.744Z,83.48
2023-01-19T16:23:21.869Z,83.00
2023-01-19T16:26:34.206Z,83.47
2023-01-19T16:29:37.284Z,83.84
2023-01-19T16:32:39.887Z,83.81
2023-01-19T16:35:42.314Z,84.29
2023-01-19T16:38:44.809Z,84.01
2023-01-19T16:41:47.866Z,83.49
2023-01-19T16:44:50.313Z,83.79
2023-01-19T16:47:52.708Z,83.12
2023-01-19T16:51:04.306Z,83.65
2023-01-19T16:54:07.524Z,83.82
2023-01-19T16:57:11.206Z,83.99
2023-01-19T17:00:14.212Z,82.92
2023-01-19T17:03:17.775Z,83.33
2023-01-19T17:06:24.811Z,82.98
2023-01-19T17:09:27.504Z,83.83
2023-01-19T17:12:32.247Z,82.80
2023-01-19T17:15:35.356Z,83.00
2023-01-19T17:18:38.247Z,82.51
2023-01-19T17:21:40.822Z,82.61
2023-01-19T17:24:44.652Z,82.98
2023-01-19T17:27:47.201Z,83.12
2023-01-19T17:30:51.462Z,81.70
2023-01-19T17:33:54.286Z,81.73
2023-01-19T17:37:02.911Z,82.21
2023-01-19T17:40:06.403Z,82.92
2023-01-19T17:43:12.256Z,82.85
2023-01-19T17:46:15.248Z,82.79
2023-01-19T17:49:17.787Z,82.35
2023-01-19T17:52:20.907Z,82.16
2023-01-19T17:55:23.894Z,82.48
2023-01-19T17:58:26.626Z,82.75
2023-01-19T18:01:32.161Z,82.82
2023-01-19T18:04:37.909Z,82.66
2023-01-19T18:07:40.696Z,82.58
2023-01-19T18:10:43.515Z,83.58
2023-01-19T18:13:48.343Z,83.99
2023-01-19T18:16:51.035Z,83.40
2023-01-19T18:19:54.807Z,84.07
2023-01-19T18:22:57.746Z,83.03
2023-01-19T18:26:05.222Z,83.43
2023-01-19T18:29:08.727Z,82.77
2023-01-19T18:32:11.706Z,82.89
2023-01-19T18:35:14.491Z,83.34
2023-01-19T18:38:17.223Z,82.60
2023-01-19T18:41:21.435Z,81.97
2023-01-19T18:44:24.972Z,81.48
2023-01-19T18:47:28.316Z,81.39
2023-01-19T18:50:31.598Z,81.40
2023-01-19T18:53:35.014Z,81.80
2023-01-19T18:56:37.501Z,82.12
2023-01-19T18:59:43.885Z,81.81
2023-01-19T19:02:47.344Z,81.74
2023-01-19T19:05:50.441Z,82.30
2023-01-19T19:08:56.924Z,82.03
2023-01-19T19:12:00.024Z,82.02
2023-01-19T19:15:03.256Z,81.92
2023-01-19T19:18:06.146Z,81.88
2023-01-19T19:21:11.007Z,82.11
2023-01-19T19:24:13.863Z,81.66
2023-01-19T19:27:17.809Z,81.80
2023-01-19T19:30:21.292Z,82.22
2023-01-19T19:33:23.884Z,81.34
2023-01-19T19:36:28.693Z,81.30
2023-01-19T19:39:31.871Z,81.12
2023-01-19T19:42:34.767Z,81.03
2023-01-19T19:45:38.464Z,80.72
2023-01-19T19:48:42.005Z,80.96
2023-01-19T19:51:44.847Z,80.68
2023-01-19T19:54:50.937Z,81.32
2023-01-19T19:57:54.874Z,80.69
2023-01-19T20:00:57.936Z,80.76
2023-01-19T20:04:06.873Z,80.23
2023-01-19T20:07:09.522Z,80.19
2023-01-19T20:10:12.383Z,80.04
2023-01-19T20:13:17.882Z,80.56
2023-01-19T20:16:23.291Z,80.34
2023-01-19T20:19:26.633Z,79.60
2023-01-19T20:22:29.420Z,79.82
2023-01-19T20:25:33.211Z,79.71
2023-01-19T20:28:36.499Z,79.50
2023-01-19T20:31:44.573Z,79.94
2023-01-19T20:34:47.466Z,80.39
2023-01-19T20:37:49.892Z,80.11
2023-01-19T20:40:53.470Z,80.21
2023-01-19T20:43:56.200Z,79.75
2023-01-19T20:46:58.879Z,80.06
2023-01-19T20:50:02.442Z,79.67
2023-01-19T20:53:05.312Z,79.26
2023-01-19T20:56:11.513Z,79.59
2023-01-19T20:59:14.441Z,79.46
2023-01-19T21:02:17.663Z,79.46
2023-01-19T21:05:20.551Z,79.40
2023-01-19T21:08:23.263Z,79.71
2023-01-19T21:11:26.484Z,79.36
2023-01-19T21:14:29.438Z,78.85
2023-01-19T21:17:32.460Z,79.25
2023-01-19T21:20:34.952Z,78.52
2023-01-19T21:23:37.420Z,79.96
2023-01-19T21:26:41.763Z,80.01
2023-01-19T21:29:44.597Z,79.25
2023-01-19T21:32:47.292Z,79.11
2023-01-19T21:35:55.561Z,79.34
2023-01-19T21:39:00.900Z,79.94
2023-01-19T21:42:03.753Z,79.04
2023-01-19T21:45:08.013Z,79.59
2023-01-19T21:48:10.548Z,79.08
2023-01-19T21:51:14.177Z,79.36
2023-01-19T21:54:17.663Z,78.96
2023-01-19T21:57:20.085Z,78.74
2023-01-19T22:00:22.763Z,79.27
2023-01-19T22:03:27.351Z,78.51
2023-01-19T22:06:30.129Z,79.08
2023-01-19T22:09:36.465Z,78.58
2023-01-19T22:12:40.435Z,79.53
2023-01-19T22:15:42.934Z,79.27
2023-01-19T22:18:50.432Z,78.93
2023-01-19T22:21:52.912Z,79.35
2023-01-19T22:24:55.501Z,79.72
2023-01-19T22:27:59.373Z,80.25
2023-01-19T22:31:13.675Z,80.54
2023-01-19T22:34:17.933Z,81.59
2023-01-19T22:37:20.415Z,81.61
2023-01-19T22:40:22.844Z,81.62
2023-01-19T22:43:25.693Z,81.56
2023-01-19T22:46:30.512Z,81.90
2023-01-19T22:49:33.021Z,81.96
2023-01-19T22:52:35.422Z,81.27
2023-01-19T22:55:37.798Z,81.36
2023-01-19T22:58:40.760Z,81.07
2023-01-19T23:01:44.446Z,80.92
2023-01-19T23:04:47.047Z,80.67
2023-01-19T23:07:49.635Z,81.03
2023-01-19T23:10:52.083Z,80.53
2023-01-19T23:13:55.436Z,81.54
2023-01-19T23:16:57.857Z,81.32
2023-01-19T23:20:00.325Z,81.79
2023-01-19T23:23:02.829Z,81.78
2023-01-19T23:26:11.752Z,82.31
2023-01-19T23:29:15.485Z,82.07
2023-01-19T23:32:17.872Z,81.54
2023-01-19T23:35:20.240Z,81.91
2023-01-19T23:38:23.069Z,80.89
2023-01-19T23:41:26.312Z,81.46
2023-01-19T23:44:28.747Z,81.48
2023-01-19T23:47:32.779Z,80.34
2023-01-19T23:50:38.819Z,80.47
2023-01-19T23:53:41.692Z,80.28
2023-01-19T23:56:44.119Z,80.79
2023-01-19T23:59:46.571Z,80.86
